Jackman, Maine
Current Conditions -  °F | °C
As of 3:00 PM on Friday 19 Dec 2014 (Local Time) from CYSC Reporting Station
Overcast Overcast  
Wind Chill: 13°   Ceiling: 1300
Heat Index: 21°   Visibility: 9mi
Dew Point: 18°   Wind: 7mph
Humidity: 86%   Direction: 310°NW
Pressure: 30.05"   Gusts: NA
Location:  45.62°N, 70.25°W
Report Text: CYSC 192000Z AUTO 31006KT 9SM OVC013 M06/M08 A3005 RMK SLP191
Loading
Personal Weather Stations






























Interactive Weather Map New forecast layout! Learn more

10-Day Weather Forecast

Advertisements
Track Severe Weather on mobile